createdAt,value
2022-12-28T00:00:03.390Z,2.40
2022-12-28T00:01:03.152Z,2.40
2022-12-28T00:02:03.024Z,2.40
2022-12-28T00:03:03.204Z,2.40
2022-12-28T00:04:03.157Z,2.40
2022-12-28T00:05:03.208Z,2.40
2022-12-28T00:06:02.997Z,2.40
2022-12-28T00:07:02.933Z,2.40
2022-12-28T00:08:02.869Z,2.40
2022-12-28T00:09:02.793Z,2.40
2022-12-28T00:10:03.555Z,2.40
2022-12-28T00:11:07.150Z,2.40
2022-12-28T00:12:03.449Z,2.40
2022-12-28T00:13:03.591Z,2.40
2022-12-28T00:14:03.497Z,2.40
2022-12-28T00:15:03.491Z,2.40
2022-12-28T00:16:03.434Z,2.40
2022-12-28T00:17:03.390Z,2.40
2022-12-28T00:18:03.310Z,2.40
2022-12-28T00:19:03.328Z,2.40
2022-12-28T00:20:03.121Z,2.40
2022-12-28T00:21:03.266Z,2.40
2022-12-28T00:22:02.938Z,2.40
2022-12-28T00:23:02.949Z,2.40
2022-12-28T00:24:02.708Z,2.40
2022-12-28T00:25:02.687Z,2.40
2022-12-28T00:26:03.596Z,2.40
2022-12-28T00:27:03.465Z,2.40
2022-12-28T00:28:03.545Z,2.40
2022-12-28T00:29:04.566Z,2.40
2022-12-28T00:30:03.230Z,2.40
2022-12-28T00:31:03.065Z,2.40
2022-12-28T00:32:03.237Z,2.40
2022-12-28T00:33:03.000Z,2.40
2022-12-28T00:34:02.959Z,2.40
2022-12-28T00:35:03.006Z,2.40
2022-12-28T00:36:02.749Z,2.40
2022-12-28T00:37:08.231Z,2.50
2022-12-28T00:38:02.617Z,2.50
2022-12-28T00:39:03.504Z,2.50
2022-12-28T00:40:03.625Z,2.50
2022-12-28T00:41:03.484Z,2.50
2022-12-28T00:42:03.400Z,2.50
2022-12-28T00:43:03.433Z,2.50
2022-12-28T00:44:03.412Z,2.50
2022-12-28T00:45:03.216Z,2.50
2022-12-28T00:46:03.229Z,2.50
2022-12-28T00:47:03.161Z,2.50
2022-12-28T00:48:03.167Z,2.50
2022-12-28T00:49:03.170Z,2.50
2022-12-28T00:50:03.018Z,2.50
2022-12-28T00:51:02.975Z,2.50
2022-12-28T00:52:02.923Z,2.50
2022-12-28T00:53:02.688Z,2.50
2022-12-28T00:54:03.723Z,2.60
2022-12-28T00:55:03.512Z,2.60
2022-12-28T00:56:03.587Z,2.60
2022-12-28T00:57:03.545Z,2.60
2022-12-28T00:58:03.401Z,2.60
2022-12-28T00:59:03.232Z,2.60
2022-12-28T01:00:03.262Z,2.60
2022-12-28T01:01:03.120Z,2.60
2022-12-28T01:02:03.276Z,2.60
2022-12-28T01:03:02.927Z,2.70
2022-12-28T01:04:02.759Z,2.70
2022-12-28T01:05:02.695Z,2.70
2022-12-28T01:06:02.683Z,2.70
2022-12-28T01:07:02.668Z,2.70
2022-12-28T01:08:02.649Z,2.70
2022-12-28T01:09:03.556Z,2.70
2022-12-28T01:10:04.001Z,2.70
2022-12-28T01:11:02.754Z,2.70
2022-12-28T01:12:02.612Z,2.70
2022-12-28T01:13:03.647Z,2.70
2022-12-28T01:14:03.670Z,2.70
2022-12-28T01:15:03.521Z,2.70
2022-12-28T01:16:02.991Z,2.70
2022-12-28T01:17:02.796Z,2.80
2022-12-28T01:18:02.830Z,2.80
2022-12-28T01:19:02.971Z,2.80
2022-12-28T01:20:02.804Z,2.80
2022-12-28T01:21:02.715Z,2.80
2022-12-28T01:22:02.702Z,2.80
2022-12-28T01:23:02.809Z,2.80
2022-12-28T01:24:03.525Z,2.80
2022-12-28T01:25:03.503Z,2.80
2022-12-28T01:26:03.553Z,2.80
2022-12-28T01:27:03.312Z,2.80
2022-12-28T01:28:03.339Z,2.80
2022-12-28T01:29:03.378Z,2.80
2022-12-28T01:30:03.352Z,2.80
2022-12-28T01:31:03.326Z,2.80
2022-12-28T01:32:03.397Z,2.80
2022-12-28T01:33:03.190Z,2.80
2022-12-28T01:34:03.042Z,2.80
2022-12-28T01:35:02.995Z,2.80
2022-12-28T01:36:03.039Z,2.80
2022-12-28T01:37:02.873Z,2.80
2022-12-28T01:38:02.808Z,2.80
2022-12-28T01:39:02.845Z,2.80
2022-12-28T01:40:02.787Z,2.80
2022-12-28T01:41:03.623Z,2.80
2022-12-28T01:42:03.398Z,2.80
2022-12-28T01:43:03.507Z,2.80
2022-12-28T01:44:03.463Z,2.80
2022-12-28T01:45:03.349Z,2.80
2022-12-28T01:46:03.287Z,2.80
2022-12-28T01:47:03.105Z,2.70
2022-12-28T01:48:03.104Z,2.70
2022-12-28T01:49:03.035Z,2.80
2022-12-28T01:50:03.098Z,2.70
2022-12-28T01:51:02.947Z,2.70
2022-12-28T01:52:02.960Z,2.70
2022-12-28T01:53:02.864Z,2.70
2022-12-28T01:54:03.041Z,2.70
2022-12-28T01:55:02.781Z,2.70
2022-12-28T01:56:02.765Z,2.70
2022-12-28T01:57:02.660Z,2.70
2022-12-28T01:58:03.660Z,2.70
2022-12-28T01:59:03.532Z,2.70
2022-12-28T02:00:03.415Z,2.70
2022-12-28T02:01:03.455Z,2.70
2022-12-28T02:02:03.428Z,2.80
2022-12-28T02:03:03.108Z,2.70
2022-12-28T02:04:03.151Z,2.80
2022-12-28T02:05:03.031Z,2.80
2022-12-28T02:06:03.045Z,2.80
2022-12-28T02:07:02.816Z,2.80
2022-12-28T02:08:02.857Z,2.80
2022-12-28T02:09:02.961Z,2.70
2022-12-28T02:10:42.087Z,2.80
2022-12-28T02:11:03.451Z,2.70
2022-12-28T02:12:03.411Z,2.70
2022-12-28T02:13:03.408Z,2.70
2022-12-28T02:14:03.165Z,2.70
2022-12-28T02:15:03.068Z,2.70
2022-12-28T02:16:03.015Z,2.80
2022-12-28T02:17:02.991Z,2.80
2022-12-28T02:18:02.999Z,2.80
2022-12-28T02:19:02.816Z,2.80
2022-12-28T02:20:02.743Z,2.80
2022-12-28T02:21:02.816Z,2.80
2022-12-28T02:22:03.549Z,2.80
2022-12-28T02:23:03.489Z,2.80
2022-12-28T02:24:03.363Z,2.80
2022-12-28T02:25:11.879Z,2.80
2022-12-28T02:26:03.190Z,2.80
2022-12-28T02:27:03.131Z,2.90
2022-12-28T02:28:03.039Z,2.80
2022-12-28T02:29:03.038Z,2.90
2022-12-28T02:30:02.984Z,2.90
2022-12-28T02:31:03.026Z,2.90
2022-12-28T02:32:02.914Z,2.90
2022-12-28T02:33:02.901Z,2.90
2022-12-28T02:34:02.747Z,2.90
2022-12-28T02:35:02.747Z,2.90
2022-12-28T02:36:02.741Z,2.90
2022-12-28T02:37:03.541Z,2.90
2022-12-28T02:38:03.522Z,2.90
2022-12-28T02:39:03.443Z,2.90
2022-12-28T02:40:03.368Z,2.80
2022-12-28T02:41:03.314Z,2.80
2022-12-28T02:42:03.229Z,2.80
2022-12-28T02:43:03.116Z,2.80
2022-12-28T02:44:03.380Z,2.80
2022-12-28T02:45:03.305Z,2.80
2022-12-28T02:46:03.382Z,2.80
2022-12-28T02:47:03.181Z,2.80
2022-12-28T02:48:03.189Z,2.80
2022-12-28T02:49:03.090Z,2.80
2022-12-28T02:50:02.948Z,2.80
2022-12-28T02:51:02.880Z,2.80
2022-12-28T02:52:02.715Z,2.80
2022-12-28T02:53:02.616Z,2.80
2022-12-28T02:54:02.635Z,2.80
2022-12-28T02:55:03.543Z,2.80
2022-12-28T02:56:03.496Z,2.80
2022-12-28T02:57:03.345Z,2.80
2022-12-28T02:58:03.361Z,2.80
2022-12-28T02:59:03.314Z,2.80
2022-12-28T03:00:03.267Z,2.80
2022-12-28T03:01:02.764Z,2.80
2022-12-28T03:02:02.856Z,2.80
2022-12-28T03:03:03.516Z,2.80
2022-12-28T03:04:03.471Z,2.80
2022-12-28T03:05:02.571Z,2.80
2022-12-28T03:06:02.720Z,2.80
2022-12-28T03:07:02.690Z,2.80
2022-12-28T03:08:03.565Z,2.80
2022-12-28T03:09:02.635Z,2.80
2022-12-28T03:10:03.547Z,2.80
2022-12-28T03:11:03.333Z,2.80
2022-12-28T03:12:03.243Z,2.80
2022-12-28T03:13:03.189Z,2.80
2022-12-28T03:14:03.220Z,2.70
2022-12-28T03:15:03.157Z,2.70
2022-12-28T03:16:03.095Z,2.70
2022-12-28T03:17:02.924Z,2.70
2022-12-28T03:18:02.778Z,2.70
2022-12-28T03:19:02.733Z,2.70
2022-12-28T03:20:02.645Z,2.70
2022-12-28T03:21:03.482Z,2.70
2022-12-28T03:22:03.354Z,2.70
2022-12-28T03:23:03.292Z,2.80
2022-12-28T03:24:03.254Z,2.80
2022-12-28T03:25:03.201Z,2.80
2022-12-28T03:26:03.241Z,2.80
2022-12-28T03:27:03.105Z,2.80
2022-12-28T03:28:03.122Z,2.80
2022-12-28T03:29:02.936Z,2.80
2022-12-28T03:30:02.814Z,2.80
2022-12-28T03:31:02.714Z,2.80
2022-12-28T03:32:02.744Z,2.80
2022-12-28T03:33:02.563Z,2.80
2022-12-28T03:34:03.536Z,2.80
2022-12-28T03:35:03.458Z,2.80
2022-12-28T03:36:03.317Z,2.80
2022-12-28T03:37:03.284Z,2.80
2022-12-28T03:38:03.204Z,2.80
2022-12-28T03:39:03.072Z,2.90
2022-12-28T03:40:02.918Z,2.90
2022-12-28T03:41:02.811Z,2.90
2022-12-28T03:42:02.740Z,2.90
2022-12-28T03:43:02.770Z,2.90
2022-12-28T03:44:02.649Z,2.90
2022-12-28T03:45:03.570Z,2.90
2022-12-28T03:46:02.819Z,3.00
2022-12-28T03:47:02.719Z,3.00
2022-12-28T03:48:02.602Z,3.00
2022-12-28T03:49:02.600Z,3.00
2022-12-28T03:50:03.599Z,3.00
2022-12-28T03:51:03.432Z,3.00
2022-12-28T03:52:02.637Z,3.00
2022-12-28T03:53:02.605Z,3.00
2022-12-28T03:54:03.564Z,3.00
2022-12-28T03:55:03.436Z,3.00
2022-12-28T03:56:03.350Z,3.00
2022-12-28T03:57:03.233Z,3.00
2022-12-28T03:58:03.219Z,3.00
2022-12-28T03:59:03.115Z,3.10
2022-12-28T04:00:03.074Z,3.00
2022-12-28T04:01:02.958Z,3.10
2022-12-28T04:02:02.911Z,3.10
2022-12-28T04:03:02.912Z,3.10
2022-12-28T04:04:02.685Z,3.10
2022-12-28T04:05:02.668Z,3.10
2022-12-28T04:06:02.684Z,3.10
2022-12-28T04:07:03.623Z,3.10
2022-12-28T04:08:03.423Z,3.10
2022-12-28T04:09:03.408Z,3.10
2022-12-28T04:10:03.293Z,3.10
2022-12-28T04:11:03.293Z,3.20
2022-12-28T04:12:03.179Z,3.20
2022-12-28T04:13:03.184Z,3.20
2022-12-28T04:14:06.925Z,3.20
2022-12-28T04:15:03.114Z,3.20
2022-12-28T04:16:02.987Z,3.20
2022-12-28T04:17:02.929Z,3.20
2022-12-28T04:18:02.970Z,3.20
2022-12-28T04:19:02.877Z,3.20
2022-12-28T04:20:02.809Z,3.20
2022-12-28T04:21:02.655Z,3.20
2022-12-28T04:22:02.600Z,3.20
2022-12-28T04:23:03.506Z,3.20
2022-12-28T04:24:03.459Z,3.20
2022-12-28T04:25:03.381Z,3.20
2022-12-28T04:26:03.223Z,3.20
2022-12-28T04:27:03.192Z,3.20
2022-12-28T04:28:03.000Z,3.20
2022-12-28T04:29:02.972Z,3.20
2022-12-28T04:30:02.824Z,3.20
2022-12-28T04:31:02.884Z,3.20
2022-12-28T04:32:02.719Z,3.20
2022-12-28T04:33:02.707Z,3.20
2022-12-28T04:34:02.696Z,3.20
2022-12-28T04:35:02.629Z,3.20
2022-12-28T04:36:02.622Z,3.20
2022-12-28T04:37:03.583Z,3.20
2022-12-28T04:38:03.548Z,3.20
2022-12-28T04:39:03.499Z,3.20
2022-12-28T04:40:03.484Z,3.20
2022-12-28T04:41:03.404Z,3.20
2022-12-28T04:42:03.255Z,3.20
2022-12-28T04:43:03.125Z,3.20
2022-12-28T04:44:03.095Z,3.20
2022-12-28T04:45:03.069Z,3.20
2022-12-28T04:46:02.894Z,3.20
2022-12-28T04:47:02.833Z,3.20
2022-12-28T04:48:02.786Z,3.20
2022-12-28T04:49:02.737Z,3.20
2022-12-28T04:50:02.769Z,3.20
2022-12-28T04:51:02.602Z,3.30
2022-12-28T04:52:03.538Z,3.30
2022-12-28T04:53:03.555Z,3.30
2022-12-28T04:54:03.499Z,3.30
2022-12-28T04:55:03.480Z,3.30
2022-12-28T04:56:03.365Z,3.30
2022-12-28T04:57:03.400Z,3.30
2022-12-28T04:58:03.359Z,3.30
2022-12-28T04:59:03.321Z,3.30
2022-12-28T05:00:03.219Z,3.30
2022-12-28T05:01:03.299Z,3.30
2022-12-28T05:02:03.255Z,3.30
2022-12-28T05:03:03.101Z,3.30
2022-12-28T05:04:03.081Z,3.30
2022-12-28T05:05:03.035Z,3.30
2022-12-28T05:06:02.964Z,3.40
2022-12-28T05:07:02.773Z,3.30
2022-12-28T05:08:02.775Z,3.40
2022-12-28T05:09:02.938Z,3.30
2022-12-28T05:10:02.634Z,3.40
2022-12-28T05:11:03.549Z,3.40
2022-12-28T05:12:03.414Z,3.40
2022-12-28T05:13:03.330Z,3.40
2022-12-28T05:14:03.175Z,3.40
2022-12-28T05:15:03.259Z,3.40
2022-12-28T05:16:03.090Z,3.40
2022-12-28T05:17:02.968Z,3.40
2022-12-28T05:18:02.861Z,3.40
2022-12-28T05:19:02.790Z,3.50
2022-12-28T05:20:02.729Z,3.50
2022-12-28T05:21:02.622Z,3.50
2022-12-28T05:22:03.587Z,3.50
2022-12-28T05:23:03.504Z,3.50
2022-12-28T05:24:03.432Z,3.50
2022-12-28T05:25:03.615Z,3.50
2022-12-28T05:26:02.663Z,3.50
2022-12-28T05:27:02.859Z,3.50
2022-12-28T05:28:02.887Z,3.50
2022-12-28T05:29:02.856Z,3.60
2022-12-28T05:30:02.701Z,3.60
2022-12-28T05:31:02.669Z,3.60
2022-12-28T05:32:03.592Z,3.60
2022-12-28T05:33:03.390Z,3.60
2022-12-28T05:34:03.235Z,3.60
2022-12-28T05:35:03.616Z,3.60
2022-12-28T05:36:02.894Z,3.60
2022-12-28T05:37:02.838Z,3.60
2022-12-28T05:38:02.735Z,3.60
2022-12-28T05:39:02.896Z,3.60
2022-12-28T05:40:02.849Z,3.60
2022-12-28T05:41:02.760Z,3.70
2022-12-28T05:42:02.607Z,3.70
2022-12-28T05:43:02.604Z,3.70
2022-12-28T05:44:03.555Z,3.70
2022-12-28T05:45:03.473Z,3.70
2022-12-28T05:46:03.329Z,3.70
2022-12-28T05:47:03.391Z,3.70
2022-12-28T05:48:03.261Z,3.70
2022-12-28T05:49:03.180Z,3.70
2022-12-28T05:50:03.073Z,3.70
2022-12-28T05:51:02.988Z,3.70
2022-12-28T05:52:02.863Z,3.70
2022-12-28T05:53:03.049Z,3.70
2022-12-28T05:54:03.004Z,3.70
2022-12-28T05:55:02.911Z,3.70
2022-12-28T05:56:02.942Z,3.70
2022-12-28T05:57:02.933Z,3.70
2022-12-28T05:58:03.309Z,3.70
2022-12-28T05:59:03.200Z,3.70
2022-12-28T06:00:03.146Z,3.70
2022-12-28T06:01:03.262Z,3.70
2022-12-28T06:02:03.265Z,3.70
2022-12-28T06:03:03.059Z,3.70
2022-12-28T06:04:02.999Z,3.70
2022-12-28T06:05:03.021Z,3.70
2022-12-28T06:06:02.946Z,3.70
2022-12-28T06:07:02.961Z,3.70
2022-12-28T06:08:02.822Z,3.70
2022-12-28T06:09:02.839Z,3.80
2022-12-28T06:10:02.928Z,3.70
2022-12-28T06:11:02.787Z,3.80
2022-12-28T06:12:02.796Z,3.80
2022-12-28T06:13:02.628Z,3.80
2022-12-28T06:14:02.718Z,3.80
2022-12-28T06:15:02.634Z,3.80
2022-12-28T06:16:02.633Z,3.80
2022-12-28T06:17:03.656Z,3.80
2022-12-28T06:18:03.644Z,3.80
2022-12-28T06:19:03.502Z,3.80
2022-12-28T06:20:03.492Z,3.80
2022-12-28T06:21:03.436Z,3.80
2022-12-28T06:22:03.437Z,3.80
2022-12-28T06:23:03.330Z,3.80
2022-12-28T06:24:03.181Z,3.80
2022-12-28T06:25:03.168Z,3.80
2022-12-28T06:26:03.048Z,3.80
2022-12-28T06:27:03.015Z,3.80
2022-12-28T06:28:02.996Z,3.80
2022-12-28T06:29:02.918Z,3.80
2022-12-28T06:30:02.831Z,3.80
2022-12-28T06:31:02.904Z,3.80
2022-12-28T06:32:02.944Z,3.80
2022-12-28T06:33:02.827Z,3.80
2022-12-28T06:34:02.761Z,3.80
2022-12-28T06:35:02.726Z,3.80
2022-12-28T06:36:02.664Z,3.80
2022-12-28T06:37:02.778Z,3.80
2022-12-28T06:38:02.648Z,3.80
2022-12-28T06:39:02.706Z,3.80
2022-12-28T06:40:03.154Z,3.80
2022-12-28T06:41:13.188Z,3.80
2022-12-28T06:42:02.979Z,3.80
2022-12-28T06:43:02.932Z,3.80
2022-12-28T06:44:02.817Z,3.90
2022-12-28T06:45:02.701Z,3.80
2022-12-28T06:46:02.704Z,3.80
2022-12-28T06:47:02.636Z,3.80
2022-12-28T06:48:03.653Z,3.80
2022-12-28T06:49:03.467Z,3.80
2022-12-28T06:50:03.353Z,3.80
2022-12-28T06:51:03.272Z,3.80
2022-12-28T06:52:03.149Z,3.80
2022-12-28T06:53:03.112Z,3.90
2022-12-28T06:54:03.047Z,3.80
2022-12-28T06:55:02.977Z,3.80
2022-12-28T06:56:02.861Z,3.90
2022-12-28T06:57:03.085Z,3.90
2022-12-28T06:58:02.563Z,3.90
2022-12-28T06:59:03.927Z,3.90
2022-12-28T07:00:03.586Z,3.90
2022-12-28T07:01:03.475Z,3.90
2022-12-28T07:02:03.592Z,3.90
2022-12-28T07:03:03.305Z,3.90
2022-12-28T07:04:03.275Z,3.90
2022-12-28T07:05:03.197Z,3.90
2022-12-28T07:06:03.171Z,3.90
2022-12-28T07:07:03.073Z,4.00
2022-12-28T07:08:06.434Z,4.00
2022-12-28T07:09:03.130Z,4.00
2022-12-28T07:10:03.132Z,4.00
2022-12-28T07:11:03.050Z,4.00
2022-12-28T07:12:02.901Z,4.00
2022-12-28T07:13:02.968Z,4.00
2022-12-28T07:14:02.967Z,4.00
2022-12-28T07:15:02.872Z,4.00
2022-12-28T07:16:02.840Z,4.00
2022-12-28T07:17:02.827Z,4.10
2022-12-28T07:18:02.822Z,4.10
2022-12-28T07:19:02.703Z,4.10
2022-12-28T07:20:02.621Z,4.10
2022-12-28T07:21:03.549Z,4.10
2022-12-28T07:22:03.513Z,4.10
2022-12-28T07:23:03.437Z,4.10
2022-12-28T07:24:03.410Z,4.10
2022-12-28T07:25:03.334Z,4.10
2022-12-28T07:26:03.244Z,4.20
2022-12-28T07:27:03.158Z,4.10
2022-12-28T07:28:03.103Z,4.10
2022-12-28T07:29:03.143Z,4.20
2022-12-28T07:30:03.147Z,4.20
2022-12-28T07:31:03.021Z,4.20
2022-12-28T07:32:03.002Z,4.20
2022-12-28T07:33:02.856Z,4.20
2022-12-28T07:34:02.785Z,4.20
2022-12-28T07:35:02.910Z,4.20
2022-12-28T07:36:02.894Z,4.20
2022-12-28T07:37:02.885Z,4.20
2022-12-28T07:38:02.846Z,4.20
2022-12-28T07:39:02.788Z,4.20
2022-12-28T07:40:02.775Z,4.20
2022-12-28T07:41:02.801Z,4.20
2022-12-28T07:42:02.749Z,4.30
2022-12-28T07:43:02.660Z,4.30
2022-12-28T07:44:02.600Z,4.30
2022-12-28T07:45:03.571Z,4.30
2022-12-28T07:46:03.562Z,4.30
2022-12-28T07:47:03.414Z,4.30
2022-12-28T07:48:03.316Z,4.40
2022-12-28T07:49:03.305Z,4.40
2022-12-28T07:50:03.237Z,4.40
2022-12-28T07:51:03.247Z,4.40
2022-12-28T07:52:03.116Z,4.40
2022-12-28T07:53:03.090Z,4.50
2022-12-28T07:54:02.945Z,4.50
2022-12-28T07:55:02.916Z,4.50
2022-12-28T07:56:02.841Z,4.50
2022-12-28T07:57:02.836Z,4.50
2022-12-28T07:58:02.814Z,4.60
2022-12-28T07:59:02.778Z,4.60
2022-12-28T08:00:02.706Z,4.60
2022-12-28T08:01:02.738Z,4.60
2022-12-28T08:02:03.669Z,4.60
2022-12-28T08:03:03.440Z,4.60
2022-12-28T08:04:03.540Z,4.60
2022-12-28T08:05:03.305Z,4.70
2022-12-28T08:06:03.364Z,4.70
2022-12-28T08:07:03.397Z,4.70
2022-12-28T08:08:03.800Z,4.70
2022-12-28T08:09:03.227Z,4.70
2022-12-28T08:10:03.171Z,4.70
2022-12-28T08:11:03.073Z,4.70
2022-12-28T08:12:02.972Z,4.80
2022-12-28T08:13:02.938Z,4.80
2022-12-28T08:14:02.842Z,4.80
2022-12-28T08:15:02.900Z,4.80
2022-12-28T08:16:02.805Z,4.80
2022-12-28T08:17:02.664Z,4.80
2022-12-28T08:18:03.594Z,4.80
2022-12-28T08:19:03.507Z,4.80
2022-12-28T08:20:03.416Z,4.80
2022-12-28T08:21:03.362Z,4.80
2022-12-28T08:22:03.246Z,4.80
2022-12-28T08:23:03.204Z,4.90
2022-12-28T08:24:03.176Z,4.90
2022-12-28T08:25:03.074Z,4.90
2022-12-28T08:26:03.054Z,4.90
2022-12-28T08:27:02.985Z,4.90
2022-12-28T08:28:02.927Z,4.90
2022-12-28T08:29:02.767Z,4.90
2022-12-28T08:30:02.720Z,5.00
2022-12-28T08:31:02.615Z,5.00
2022-12-28T08:32:03.557Z,5.00
2022-12-28T08:33:03.591Z,5.00
2022-12-28T08:34:03.554Z,5.00
2022-12-28T08:35:03.538Z,5.00
2022-12-28T08:36:03.461Z,5.00
2022-12-28T08:37:03.421Z,5.00
2022-12-28T08:38:03.404Z,5.00
2022-12-28T08:39:03.243Z,5.10
2022-12-28T08:40:03.104Z,5.10
2022-12-28T08:41:03.103Z,5.10
2022-12-28T08:42:02.951Z,5.10
2022-12-28T08:43:02.919Z,5.10
2022-12-28T08:44:02.993Z,5.10
2022-12-28T08:45:02.841Z,5.10
2022-12-28T08:46:02.916Z,5.20
2022-12-28T08:47:02.839Z,5.20
2022-12-28T08:48:02.603Z,5.20
2022-12-28T08:49:02.654Z,5.20
2022-12-28T08:50:02.714Z,5.20
2022-12-28T08:51:02.570Z,5.20
2022-12-28T08:52:03.519Z,5.20
2022-12-28T08:53:03.393Z,5.20
2022-12-28T08:54:03.353Z,5.20
2022-12-28T08:55:03.280Z,5.30
2022-12-28T08:56:06.566Z,5.30
2022-12-28T08:57:03.236Z,5.30
2022-12-28T08:58:03.455Z,5.30
2022-12-28T08:59:03.330Z,5.30
2022-12-28T09:00:03.322Z,5.30
2022-12-28T09:01:03.185Z,5.30
2022-12-28T09:02:03.287Z,5.30
2022-12-28T09:03:03.155Z,5.30
2022-12-28T09:04:02.926Z,5.30
2022-12-28T09:05:02.944Z,5.30
2022-12-28T09:06:02.895Z,5.40
2022-12-28T09:07:02.765Z,5.40
2022-12-28T09:08:02.684Z,5.40
2022-12-28T09:09:05.642Z,5.40
2022-12-28T09:10:03.606Z,5.40
2022-12-28T09:11:03.505Z,5.40
2022-12-28T09:12:03.420Z,5.40
2022-12-28T09:13:03.405Z,5.40
2022-12-28T09:14:03.434Z,5.40
2022-12-28T09:15:03.336Z,5.40
2022-12-28T09:16:03.302Z,5.50
2022-12-28T09:17:03.327Z,5.50
2022-12-28T09:18:03.279Z,5.50
2022-12-28T09:19:03.337Z,5.50
2022-12-28T09:20:03.203Z,5.50
2022-12-28T09:21:03.272Z,5.50
2022-12-28T09:22:03.162Z,5.50
2022-12-28T09:23:03.056Z,5.50
2022-12-28T09:24:02.966Z,5.60
2022-12-28T09:25:03.050Z,5.60
2022-12-28T09:26:02.956Z,5.60
2022-12-28T09:27:02.904Z,5.60
2022-12-28T09:28:02.781Z,5.60
2022-12-28T09:29:02.700Z,5.60
2022-12-28T09:30:02.851Z,5.60
2022-12-28T09:31:02.835Z,5.60
2022-12-28T09:32:02.765Z,5.60
2022-12-28T09:33:02.725Z,5.60
2022-12-28T09:34:34.745Z,5.60
2022-12-28T09:35:03.663Z,5.60
2022-12-28T09:36:02.643Z,5.60
2022-12-28T09:37:02.598Z,5.60
2022-12-28T09:38:02.569Z,5.70
2022-12-28T09:39:03.635Z,5.70
2022-12-28T09:40:03.435Z,5.70
2022-12-28T09:41:03.385Z,5.70
2022-12-28T09:42:03.426Z,5.70
2022-12-28T09:43:03.381Z,5.70
2022-12-28T09:44:03.252Z,5.70
2022-12-28T09:45:03.243Z,5.70
2022-12-28T09:46:03.232Z,5.70
2022-12-28T09:47:03.206Z,5.70
2022-12-28T09:48:03.043Z,5.80
2022-12-28T09:49:03.014Z,5.80
2022-12-28T09:50:02.896Z,5.80
2022-12-28T09:51:02.890Z,5.80
2022-12-28T09:52:02.811Z,5.80
2022-12-28T09:53:02.724Z,5.80
2022-12-28T09:54:02.687Z,5.80
2022-12-28T09:55:03.577Z,5.80
2022-12-28T09:56:03.497Z,5.80
2022-12-28T09:57:03.540Z,5.80
2022-12-28T09:58:03.470Z,5.80
2022-12-28T09:59:03.467Z,5.90
2022-12-28T10:00:03.548Z,5.90
2022-12-28T10:01:03.489Z,5.90
2022-12-28T10:02:03.403Z,5.90
2022-12-28T10:03:03.302Z,5.90
2022-12-28T10:04:03.331Z,5.90
2022-12-28T10:05:03.236Z,5.90
2022-12-28T10:06:03.246Z,5.90
2022-12-28T10:07:03.201Z,5.90
2022-12-28T10:08:03.167Z,5.90
2022-12-28T10:09:03.038Z,5.90
2022-12-28T10:10:02.977Z,5.90
2022-12-28T10:11:03.041Z,5.90
2022-12-28T10:12:02.932Z,5.90
2022-12-28T10:13:04.558Z,5.90
2022-12-28T10:14:03.001Z,5.90
2022-12-28T10:15:02.952Z,6.00
2022-12-28T10:16:02.961Z,6.00
2022-12-28T10:17:03.007Z,6.00
2022-12-28T10:18:02.889Z,6.00
2022-12-28T10:19:02.865Z,6.00
2022-12-28T10:20:02.875Z,6.00
2022-12-28T10:21:02.744Z,6.00
2022-12-28T10:22:02.766Z,6.00
2022-12-28T10:23:02.682Z,6.00
2022-12-28T10:24:30.089Z,6.00
2022-12-28T10:25:03.474Z,6.00
2022-12-28T10:26:03.465Z,6.00
2022-12-28T10:27:03.456Z,6.00
2022-12-28T10:28:03.359Z,6.00
2022-12-28T10:29:03.340Z,6.00
2022-12-28T10:30:03.287Z,6.00
2022-12-28T10:31:03.329Z,6.00
2022-12-28T10:32:03.284Z,6.00
2022-12-28T10:33:03.767Z,6.10
2022-12-28T10:34:03.255Z,6.10
2022-12-28T10:35:03.181Z,6.10
2022-12-28T10:36:03.109Z,6.10
2022-12-28T10:37:03.098Z,6.10
2022-12-28T10:38:03.556Z,6.10
2022-12-28T10:39:03.437Z,6.10
2022-12-28T10:40:03.442Z,6.10
2022-12-28T10:41:03.365Z,6.10
2022-12-28T10:42:03.367Z,6.20
2022-12-28T10:43:07.026Z,6.20
2022-12-28T10:44:29.624Z,6.20
2022-12-28T10:45:03.299Z,6.20
2022-12-28T10:46:03.368Z,6.20
2022-12-28T10:47:03.306Z,6.20
2022-12-28T10:48:03.268Z,6.20
2022-12-28T10:49:03.231Z,6.20
2022-12-28T10:50:34.980Z,6.20
2022-12-28T10:51:03.136Z,6.20
2022-12-28T10:52:02.710Z,6.20
2022-12-28T10:53:02.668Z,6.30
2022-12-28T10:54:02.893Z,6.30
2022-12-28T10:55:07.805Z,6.30
2022-12-28T10:56:03.204Z,6.30
2022-12-28T10:57:03.104Z,6.30
2022-12-28T10:58:28.431Z,6.30
2022-12-28T10:59:02.935Z,6.30
2022-12-28T11:00:02.952Z,6.30
2022-12-28T11:01:02.977Z,6.30
2022-12-28T11:02:03.130Z,6.40
2022-12-28T11:03:02.912Z,6.40
2022-12-28T11:04:02.968Z,6.40
2022-12-28T11:05:02.853Z,6.40
2022-12-28T11:06:02.861Z,6.40
2022-12-28T11:07:02.756Z,6.40
2022-12-28T11:08:02.693Z,6.40
2022-12-28T11:09:03.583Z,6.40
2022-12-28T11:10:03.554Z,6.40
2022-12-28T11:11:03.474Z,6.40
2022-12-28T11:12:03.478Z,6.50
2022-12-28T11:13:03.462Z,6.40
2022-12-28T11:14:03.500Z,6.50
2022-12-28T11:15:03.437Z,6.50
2022-12-28T11:16:03.524Z,6.50
2022-12-28T11:17:03.499Z,6.50
2022-12-28T11:18:02.627Z,6.50
2022-12-28T11:19:03.540Z,6.50
2022-12-28T11:20:03.531Z,6.50
2022-12-28T11:21:03.539Z,6.50
2022-12-28T11:22:03.593Z,6.50
2022-12-28T11:23:03.551Z,6.50
2022-12-28T11:24:03.572Z,6.50
2022-12-28T11:25:03.524Z,6.50
2022-12-28T11:26:03.395Z,6.60
2022-12-28T11:27:03.392Z,6.50
2022-12-28T11:28:03.340Z,6.50
2022-12-28T11:29:03.295Z,6.50
2022-12-28T11:30:03.300Z,6.60
2022-12-28T11:31:03.263Z,6.60
2022-12-28T11:32:03.179Z,6.60
2022-12-28T11:33:03.177Z,6.60
2022-12-28T11:34:03.155Z,6.60
2022-12-28T11:35:03.208Z,6.60
2022-12-28T11:36:06.950Z,6.60
2022-12-28T11:37:03.062Z,6.60
2022-12-28T11:38:03.070Z,6.60
2022-12-28T11:39:02.919Z,6.60
2022-12-28T11:40:02.910Z,6.60
2022-12-28T11:41:02.765Z,6.60
2022-12-28T11:42:36.943Z,6.60
2022-12-28T11:43:02.838Z,6.70
2022-12-28T11:44:02.911Z,6.70
2022-12-28T11:45:02.665Z,6.70
2022-12-28T11:46:03.640Z,6.70
2022-12-28T11:47:03.576Z,6.70
2022-12-28T11:48:03.354Z,6.70
2022-12-28T11:49:03.325Z,6.70
2022-12-28T11:50:03.193Z,6.70
2022-12-28T11:51:03.221Z,6.70
2022-12-28T11:52:03.246Z,6.70
2022-12-28T11:53:04.719Z,6.70
2022-12-28T11:54:03.209Z,6.80
2022-12-28T11:55:03.120Z,6.80
2022-12-28T11:56:03.078Z,6.80
2022-12-28T11:57:02.924Z,6.80
2022-12-28T11:58:02.947Z,6.80
2022-12-28T11:59:02.806Z,6.80
2022-12-28T12:00:07.781Z,6.80
2022-12-28T12:01:02.784Z,6.80
2022-12-28T12:02:02.865Z,6.80
2022-12-28T12:03:02.837Z,6.90
2022-12-28T12:04:02.804Z,6.90
2022-12-28T12:05:02.621Z,6.90
2022-12-28T12:06:03.549Z,6.90
2022-12-28T12:07:03.524Z,6.90
2022-12-28T12:08:03.490Z,6.90
2022-12-28T12:09:03.409Z,6.90
2022-12-28T12:10:03.357Z,6.90
2022-12-28T12:11:03.276Z,6.90
2022-12-28T12:12:03.258Z,6.90
2022-12-28T12:13:03.177Z,6.90
2022-12-28T12:14:03.094Z,6.90
2022-12-28T12:15:02.958Z,6.90
2022-12-28T12:16:03.014Z,6.90
2022-12-28T12:17:03.354Z,6.90
2022-12-28T12:18:02.980Z,6.90
2022-12-28T12:19:02.848Z,6.90
2022-12-28T12:20:02.774Z,6.90
2022-12-28T12:21:02.631Z,6.90
2022-12-28T12:22:03.616Z,6.90
2022-12-28T12:23:03.517Z,6.90
2022-12-28T12:24:03.502Z,6.90
2022-12-28T12:25:03.407Z,6.90
2022-12-28T12:26:03.386Z,6.90
2022-12-28T12:27:06.143Z,6.90
2022-12-28T12:28:03.272Z,6.90
2022-12-28T12:29:03.317Z,6.90
2022-12-28T12:30:03.237Z,6.90
2022-12-28T12:31:03.239Z,6.90
2022-12-28T12:32:03.036Z,6.90
2022-12-28T12:33:03.033Z,6.90
2022-12-28T12:34:02.930Z,7.00
2022-12-28T12:35:03.082Z,7.00
2022-12-28T12:36:02.941Z,7.00
2022-12-28T12:37:02.930Z,7.00
2022-12-28T12:38:02.849Z,7.00
2022-12-28T12:39:02.802Z,7.00
2022-12-28T12:40:02.882Z,7.00
2022-12-28T12:41:02.835Z,7.00
2022-12-28T12:42:02.780Z,7.00
2022-12-28T12:43:02.640Z,7.00
2022-12-28T12:44:03.527Z,7.10
2022-12-28T12:45:03.506Z,7.10
2022-12-28T12:46:03.422Z,7.10
2022-12-28T12:47:05.807Z,7.10
2022-12-28T12:48:03.476Z,7.10
2022-12-28T12:49:03.351Z,7.10
2022-12-28T12:50:03.258Z,7.10
2022-12-28T12:51:03.177Z,7.20
2022-12-28T12:52:03.213Z,7.20
2022-12-28T12:53:03.099Z,7.20
2022-12-28T12:54:02.976Z,7.20
2022-12-28T12:55:03.010Z,7.20
2022-12-28T12:56:02.904Z,7.20
2022-12-28T12:57:02.870Z,7.20
2022-12-28T12:58:02.786Z,7.20
2022-12-28T12:59:02.661Z,7.20
2022-12-28T13:00:03.607Z,7.20
2022-12-28T13:01:03.666Z,7.20
2022-12-28T13:02:03.823Z,7.20
2022-12-28T13:03:03.495Z,7.20
2022-12-28T13:04:03.353Z,7.20
2022-12-28T13:05:03.339Z,7.20
2022-12-28T13:06:03.380Z,7.20
2022-12-28T13:07:03.269Z,7.20
2022-12-28T13:08:03.225Z,7.20
2022-12-28T13:09:05.552Z,7.20
2022-12-28T13:10:03.004Z,7.20
2022-12-28T13:11:03.016Z,7.20
2022-12-28T13:12:02.916Z,7.20
2022-12-28T13:13:02.872Z,7.20
2022-12-28T13:14:02.754Z,7.20
2022-12-28T13:15:06.046Z,7.20
2022-12-28T13:16:03.690Z,7.20
2022-12-28T13:17:03.630Z,7.20
2022-12-28T13:18:42.787Z,7.20